Time;durP1;ratioP1;P1;durP2;ratioP2;P2;SDS_P1;SDS_P2;PMS_P1;PMS_P2;Temp;Humidity;BMP_temperature;BMP_pressure;BME280_temperature;BME280_humidity;BME280_pressure;Samples;Min_cycle;Max_cycle;Signal;HPM_P1;HPM_P2
2021/08/28 00:01:43;;;;;;;8.13;5.33;;;14.10;99.90;;;;;;6274830;22;20151;-59
2021/08/28 00:04:09;;;;;;;5.80;5.20;;;14.00;99.90;;;;;;6275026;22;20749;-61
2021/08/28 00:06:35;;;;;;;6.87;4.73;;;14.00;99.90;;;;;;6274881;22;20164;-61
2021/08/28 00:09:00;;;;;;;6.73;4.70;;;14.00;99.90;;;;;;6274556;22;20147;-61
2021/08/28 00:11:26;;;;;;;6.00;5.43;;;14.00;99.90;;;;;;6274876;22;20148;-61
2021/08/28 00:13:51;;;;;;;6.70;5.77;;;14.00;99.90;;;;;;6274798;22;20152;-61
2021/08/28 00:16:17;;;;;;;8.13;6.37;;;13.90;99.90;;;;;;6273977;22;20225;-61
2021/08/28 00:18:43;;;;;;;6.67;5.53;;;13.90;99.90;;;;;;6274271;22;20182;-61
2021/08/28 00:21:08;;;;;;;6.20;5.60;;;13.90;99.90;;;;;;6274725;22;20228;-61
2021/08/28 00:23:34;;;;;;;5.80;5.20;;;14.00;99.90;;;;;;6274718;22;20230;-62
2021/08/28 00:25:59;;;;;;;6.07;5.47;;;14.10;99.90;;;;;;6274561;22;20683;-61
2021/08/28 00:28:25;;;;;;;6.23;5.60;;;14.10;99.90;;;;;;6273930;22;20172;-58
2021/08/28 00:30:50;;;;;;;7.20;5.50;;;14.00;99.90;;;;;;6272387;22;20152;-61
2021/08/28 00:33:17;;;;;;;7.07;5.80;;;13.90;99.90;;;;;;6247465;22;20155;-61
2021/08/28 00:35:43;;;;;;;6.43;5.43;;;13.90;99.90;;;;;;6274912;22;20159;-61
2021/08/28 00:38:09;;;;;;;6.43;5.47;;;13.90;99.90;;;;;;6274547;22;20197;-62
2021/08/28 00:40:37;;;;;;;7.83;5.73;;;13.90;99.90;;;;;;6274165;22;20146;-61
2021/08/28 00:43:04;;;;;;;7.10;5.87;;;13.90;99.90;;;;;;6274522;22;20192;-62
2021/08/28 00:45:33;;;;;;;6.67;5.77;;;13.80;99.90;;;;;;6274726;22;20170;-61
2021/08/28 00:48:02;;;;;;;8.33;5.37;;;13.80;99.90;;;;;;6274384;22;20183;-62
2021/08/28 00:50:34;;;;;;;7.07;4.80;;;13.80;99.90;;;;;;6274160;22;20147;-61
2021/08/28 00:53:01;;;;;;;5.77;5.20;;;14.00;99.90;;;;;;6274708;22;20177;-61
2021/08/28 00:55:29;;;;;;;5.30;4.73;;;14.00;99.90;;;;;;6274900;22;20150;-61
2021/08/28 00:57:55;;;;;;;5.00;4.47;;;14.10;99.90;;;;;;6274167;22;20497;-61
2021/08/28 01:00:21;;;;;;;5.90;4.47;;;14.10;99.90;;;;;;6274255;22;20598;-61
2021/08/28 01:02:48;;;;;;;5.83;4.40;;;14.10;99.90;;;;;;6274550;22;20182;-61
2021/08/28 01:05:17;;;;;;;5.20;4.70;;;14.10;99.90;;;;;;6274293;22;20755;-61
2021/08/28 01:08:15;;;;;;;7.43;4.00;;;14.10;99.90;;;;;;6274159;22;20174;-62
2021/08/28 01:10:50;;;;;;;6.20;5.27;;;14.10;99.90;;;;;;6150327;23;20244;-62
2021/08/28 01:13:17;;;;;;;6.10;5.47;;;14.10;99.90;;;;;;6150478;23;20234;-62
2021/08/28 01:15:45;;;;;;;5.50;4.43;;;14.00;99.90;;;;;;6150553;23;20156;-62
2021/08/28 01:18:13;;;;;;;5.10;4.57;;;13.80;99.90;;;;;;6150253;23;20173;-62
2021/08/28 01:20:59;;;;;;;5.70;4.87;;;13.80;99.90;;;;;;6150111;23;20600;-62
2021/08/28 01:23:27;;;;;;;5.70;4.63;;;13.80;99.90;;;;;;6149480;23;20206;-62
2021/08/28 01:25:54;;;;;;;5.17;4.67;;;13.70;99.90;;;;;;6150418;23;20178;-62
2021/08/28 01:28:21;;;;;;;5.50;5.00;;;13.70;99.90;;;;;;6150207;23;20191;-61
2021/08/28 01:30:47;;;;;;;5.67;5.17;;;13.70;99.90;;;;;;6150318;23;20159;-62
2021/08/28 01:33:14;;;;;;;5.20;4.70;;;13.70;99.90;;;;;;6150163;23;20160;-62
2021/08/28 01:35:43;;;;;;;5.57;5.00;;;13.80;99.90;;;;;;6150491;23;20159;-62
2021/08/28 01:38:11;;;;;;;5.77;5.17;;;13.70;99.90;;;;;;6150202;23;20689;-62
2021/08/28 01:40:38;;;;;;;6.77;5.27;;;13.70;99.90;;;;;;6150028;23;20160;-61
2021/08/28 01:43:05;;;;;;;6.70;5.23;;;13.60;99.90;;;;;;6150096;23;20184;-62
2021/08/28 01:45:32;;;;;;;5.13;4.73;;;13.60;99.90;;;;;;6150488;23;20791;-62
2021/08/28 01:47:58;;;;;;;6.83;4.90;;;13.70;99.90;;;;;;6232015;22;20188;-62
2021/08/28 01:50:24;;;;;;;7.47;5.50;;;13.80;99.90;;;;;;6273426;22;20196;-62
2021/08/28 01:52:50;;;;;;;5.23;4.67;;;13.80;99.90;;;;;;6273965;22;20157;-62
2021/08/28 01:55:17;;;;;;;5.90;4.80;;;13.80;99.90;;;;;;6274018;22;20566;-62
2021/08/28 01:57:43;;;;;;;6.13;5.47;;;13.80;99.90;;;;;;6273923;22;20179;-62
2021/08/28 02:00:09;;;;;;;6.10;5.50;;;14.70;99.90;;;;;;6273651;22;20158;-62
2021/08/28 02:02:36;;;;;;;6.20;5.13;;;13.70;99.90;;;;;;6273815;22;20246;-62
2021/08/28 02:05:03;;;;;;;5.27;4.77;;;13.70;99.90;;;;;;6273739;22;20156;-62
2021/08/28 02:07:52;;;;;;;6.33;5.73;;;13.80;99.90;;;;;;6273848;22;20175;-62
2021/08/28 02:10:51;;;;;;;7.33;4.97;;;13.80;99.90;;;;;;6273568;22;20165;-60
2021/08/28 02:13:32;;;;;;;6.90;5.17;;;13.90;99.90;;;;;;6272718;22;20614;-62
2021/08/28 02:16:09;;;;;;;8.53;6.83;;;13.80;99.90;;;;;;6246614;22;20152;-62
2021/08/28 02:18:50;;;;;;;6.40;5.57;;;13.90;99.90;;;;;;6273697;22;20223;-62
2021/08/28 02:21:17;;;;;;;6.63;5.33;;;14.00;99.90;;;;;;6273809;22;20478;-62
2021/08/28 02:23:50;;;;;;;6.33;5.70;;;14.10;99.90;;;;;;6273819;22;20176;-62
2021/08/28 02:26:20;;;;;;;6.63;5.93;;;14.00;99.90;;;;;;6273929;22;20227;-62
2021/08/28 02:29:01;;;;;;;7.00;6.30;;;14.00;99.90;;;;;;6273809;22;20156;-62
2021/08/28 02:31:33;;;;;;;7.00;6.30;;;13.90;99.90;;;;;;6274214;22;20149;-61
2021/08/28 02:34:01;;;;;;;6.33;5.73;;;13.80;99.90;;;;;;6274118;22;20145;-60
2021/08/28 02:36:27;;;;;;;7.63;5.77;;;13.70;99.90;;;;;;6273726;22;20153;-62
2021/08/28 02:38:54;;;;;;;7.00;5.97;;;13.80;99.90;;;;;;6273607;22;20163;-62
2021/08/28 02:41:22;;;;;;;5.80;5.30;;;13.80;99.90;;;;;;6274136;22;20207;-61
2021/08/28 02:43:48;;;;;;;7.00;5.87;;;13.90;99.90;;;;;;6273928;22;20675;-61
2021/08/28 02:46:15;;;;;;;7.23;6.07;;;13.80;99.90;;;;;;6273714;22;20197;-62
2021/08/28 02:48:42;;;;;;;6.70;5.77;;;13.80;99.90;;;;;;6273267;22;20183;-61
2021/08/28 02:51:10;;;;;;;6.70;6.00;;;13.70;99.90;;;;;;6273870;22;20155;-61
2021/08/28 02:53:40;;;;;;;6.20;5.60;;;13.70;99.90;;;;;;6274082;22;20176;-61
2021/08/28 02:56:07;;;;;;;6.53;5.87;;;13.60;99.90;;;;;;6274069;22;20170;-62
2021/08/28 02:58:33;;;;;;;7.60;6.20;;;13.70;99.90;;;;;;6273197;22;20617;-61
2021/08/28 03:01:00;;;;;;;7.83;6.70;;;13.70;99.90;;;;;;6274315;22;20228;-61
2021/08/28 03:03:26;;;;;;;8.73;7.07;;;13.80;99.90;;;;;;6275706;22;20215;-62
2021/08/28 03:05:53;;;;;;;8.00;6.77;;;13.90;99.90;;;;;;6275741;22;20165;-62
2021/08/28 03:08:19;;;;;;;7.87;6.57;;;13.70;99.90;;;;;;6275879;22;20172;-61
2021/08/28 03:10:47;;;;;;;7.07;6.07;;;14.10;99.90;;;;;;6275554;22;20144;-61
2021/08/28 03:13:13;;;;;;;9.00;7.23;;;13.50;99.90;;;;;;6275805;22;20156;-61
2021/08/28 03:15:41;;;;;;;7.30;6.60;;;13.50;99.90;;;;;;6275564;22;20158;-61
2021/08/28 03:18:08;;;;;;;8.47;7.67;;;13.40;99.90;;;;;;6275324;22;20249;-61
2021/08/28 03:20:34;;;;;;;8.83;6.90;;;13.30;99.90;;;;;;6275348;22;20152;-61
2021/08/28 03:23:01;;;;;;;8.00;7.13;;;13.30;99.90;;;;;;6275380;22;20249;-62
2021/08/28 03:25:27;;;;;;;8.73;6.93;;;13.30;99.90;;;;;;6275566;22;20153;-62
2021/08/28 03:27:53;;;;;;;7.70;6.90;;;13.30;99.90;;;;;;6275383;22;20200;-62
2021/08/28 03:30:20;;;;;;;7.40;6.60;;;13.40;99.90;;;;;;6275103;22;20155;-61
2021/08/28 03:32:47;;;;;;;8.03;6.87;;;13.40;99.90;;;;;;6275168;22;20156;-61
2021/08/28 03:35:14;;;;;;;10.43;7.73;;;13.40;99.90;;;;;;6275051;22;20766;-61
2021/08/28 03:37:40;;;;;;;9.20;7.17;;;13.40;99.90;;;;;;6275351;22;20175;-62
2021/08/28 03:40:10;;;;;;;8.73;7.37;;;13.40;99.90;;;;;;6274931;22;20274;-62
2021/08/28 03:42:38;;;;;;;7.83;7.00;;;13.40;99.90;;;;;;6275332;22;20213;-61
2021/08/28 03:45:09;;;;;;;8.63;7.53;;;13.50;99.90;;;;;;6275322;22;20190;-62
2021/08/28 03:47:37;;;;;;;8.20;7.20;;;13.40;99.90;;;;;;6274828;22;20188;-62
2021/08/28 03:50:04;;;;;;;8.17;7.27;;;13.40;99.90;;;;;;6274726;22;20173;-62
2021/08/28 03:52:30;;;;;;;8.03;7.23;;;13.50;99.90;;;;;;6275100;22;20630;-62
2021/08/28 03:54:55;;;;;;;9.07;7.80;;;13.60;99.90;;;;;;6275054;22;20152;-60
2021/08/28 03:57:21;;;;;;;7.83;7.03;;;14.50;99.90;;;;;;6275068;22;20200;-62
2021/08/28 03:59:47;;;;;;;8.57;7.10;;;13.60;99.90;;;;;;6274963;22;20623;-62
2021/08/28 04:02:12;;;;;;;8.13;7.07;;;13.50;99.90;;;;;;6274814;22;20670;-62
2021/08/28 04:04:38;;;;;;;8.80;7.73;;;13.40;99.90;;;;;;6275308;22;20151;-62
2021/08/28 04:07:03;;;;;;;7.53;6.73;;;13.40;99.90;;;;;;6274963;22;20202;-62
2021/08/28 04:09:29;;;;;;;9.00;7.17;;;13.40;99.90;;;;;;6271858;22;20183;-58
2021/08/28 04:11:54;;;;;;;9.57;7.00;;;13.40;99.90;;;;;;6274135;22;20143;-62
2021/08/28 04:14:20;;;;;;;8.67;6.80;;;13.50;99.90;;;;;;6274918;22;20209;-56
2021/08/28 04:16:45;;;;;;;7.50;6.80;;;13.70;99.90;;;;;;6274551;22;20474;-62
2021/08/28 04:19:11;;;;;;;7.17;5.90;;;14.00;99.90;;;;;;6274254;22;20526;-63
2021/08/28 04:21:37;;;;;;;5.57;4.90;;;14.20;99.90;;;;;;6274689;22;20154;-62
2021/08/28 04:24:02;;;;;;;5.10;4.70;;;14.30;99.90;;;;;;6274292;22;20211;-59
2021/08/28 04:26:28;;;;;;;6.50;5.80;;;14.40;99.90;;;;;;6247477;22;20175;-62
2021/08/28 04:28:55;;;;;;;6.03;5.43;;;14.90;99.90;;;;;;6274288;22;20926;-62
2021/08/28 04:31:21;;;;;;;6.37;5.77;;;14.50;99.90;;;;;;6274624;22;20150;-62
2021/08/28 04:33:46;;;;;;;7.10;5.60;;;14.70;99.90;;;;;;6274542;22;20152;-62
2021/08/28 04:36:12;;;;;;;7.20;5.40;;;14.80;99.90;;;;;;6247521;22;20174;-62
2021/08/28 04:38:37;;;;;;;8.90;6.00;;;14.80;99.90;;;;;;6273987;22;20195;-62
2021/08/28 04:41:03;;;;;;;6.80;6.10;;;14.90;99.90;;;;;;6274642;22;20159;-62
2021/08/28 04:43:28;;;;;;;8.27;6.77;;;14.70;99.90;;;;;;6274038;22;20197;-61
2021/08/28 04:45:54;;;;;;;7.50;6.00;;;14.30;99.90;;;;;;6274578;22;20137;-62
2021/08/28 04:48:20;;;;;;;7.30;6.50;;;14.20;99.90;;;;;;6280146;22;20196;-58
2021/08/28 04:50:45;;;;;;;7.30;6.50;;;14.80;99.90;;;;;;6304031;22;20144;-61
2021/08/28 04:53:11;;;;;;;6.57;5.83;;;14.00;99.90;;;;;;6305043;22;20144;-58
2021/08/28 04:55:37;;;;;;;8.40;6.37;;;13.90;99.90;;;;;;6305536;22;20218;-59
2021/08/28 04:58:02;;;;;;;7.13;6.00;;;13.90;99.90;;;;;;6300593;22;20173;-59
2021/08/28 05:00:28;;;;;;;7.47;5.87;;;14.20;99.90;;;;;;6273904;22;20149;-59
2021/08/28 05:02:54;;;;;;;7.30;6.53;;;13.70;99.90;;;;;;6274257;22;20232;-58
2021/08/28 05:05:19;;;;;;;6.57;5.87;;;13.60;99.90;;;;;;6274046;22;20590;-59
2021/08/28 05:07:45;;;;;;;7.30;6.20;;;13.60;99.90;;;;;;6273978;22;20148;-59
2021/08/28 05:10:10;;;;;;;7.17;6.30;;;13.60;99.90;;;;;;6273779;22;20782;-59
2021/08/28 05:12:36;;;;;;;7.87;6.73;;;13.80;99.90;;;;;;6274172;22;20153;-59
2021/08/28 05:15:02;;;;;;;7.50;6.70;;;13.80;99.90;;;;;;6274178;22;20199;-58
2021/08/28 05:17:28;;;;;;;7.57;6.37;;;13.80;99.90;;;;;;6274002;22;20155;-58
2021/08/28 05:19:54;;;;;;;7.40;6.40;;;13.70;99.90;;;;;;6275354;22;20215;-60
2021/08/28 05:22:20;;;;;;;7.00;6.30;;;13.80;99.90;;;;;;6274235;22;20623;-57
2021/08/28 05:24:45;;;;;;;6.57;5.87;;;13.80;99.90;;;;;;6273783;22;20621;-58
2021/08/28 05:27:11;;;;;;;7.23;6.47;;;13.80;99.90;;;;;;6273908;22;20145;-59
2021/08/28 05:29:36;;;;;;;8.20;6.10;;;13.90;99.90;;;;;;6273923;22;20162;-57
2021/08/28 05:32:02;;;;;;;6.90;6.20;;;14.00;99.90;;;;;;6273906;22;20149;-58
2021/08/28 05:34:28;;;;;;;8.93;7.23;;;14.10;99.90;;;;;;6274186;22;20143;-60
2021/08/28 05:36:53;;;;;;;7.93;6.17;;;14.10;99.90;;;;;;6273888;22;20150;-55
2021/08/28 05:39:19;;;;;;;8.27;6.57;;;14.00;99.90;;;;;;6273357;22;20169;-59
2021/08/28 05:41:44;;;;;;;6.90;6.27;;;14.00;99.90;;;;;;6274102;22;20157;-58
2021/08/28 05:44:10;;;;;;;6.23;5.63;;;13.90;99.90;;;;;;6274059;22;20184;-59
2021/08/28 05:46:36;;;;;;;6.90;6.27;;;14.90;99.90;;;;;;6274040;22;20151;-56
2021/08/28 05:49:01;;;;;;;9.80;7.20;;;14.20;99.90;;;;;;6273195;22;20189;-59
2021/08/28 05:51:27;;;;;;;6.87;6.10;;;14.30;99.90;;;;;;6274032;22;20205;-58
2021/08/28 05:53:52;;;;;;;6.43;5.83;;;14.50;99.90;;;;;;6273553;22;20642;-56
2021/08/28 05:56:18;;;;;;;6.73;5.83;;;14.60;99.90;;;;;;6273995;22;20153;-57
2021/08/28 05:58:43;;;;;;;6.93;6.23;;;14.40;99.90;;;;;;6273467;22;20653;-59
2021/08/28 06:01:09;;;;;;;6.77;5.97;;;14.30;99.90;;;;;;6273958;22;20669;-59
2021/08/28 06:03:34;;;;;;;6.53;5.90;;;14.20;99.90;;;;;;6273676;22;20176;-59
2021/08/28 06:06:00;;;;;;;7.67;6.07;;;14.20;99.90;;;;;;6273775;22;20222;-58
2021/08/28 06:08:26;;;;;;;6.30;5.70;;;14.10;99.90;;;;;;6273362;22;20193;-58
2021/08/28 06:10:51;;;;;;;6.93;5.70;;;14.00;99.90;;;;;;6273704;22;20157;-59
2021/08/28 06:13:17;;;;;;;10.13;5.77;;;14.10;99.90;;;;;;6273769;22;20154;-56
2021/08/28 06:15:42;;;;;;;5.80;5.20;;;14.70;99.90;;;;;;6273683;22;20167;-57
2021/08/28 06:18:08;;;;;;;5.53;5.03;;;14.20;99.90;;;;;;6273440;22;20172;-56
2021/08/28 06:20:33;;;;;;;7.57;5.63;;;14.30;99.90;;;;;;6273241;22;20153;-58
2021/08/28 06:22:59;;;;;;;6.27;5.20;;;14.40;99.90;;;;;;6273432;22;20379;-61
2021/08/28 06:25:25;;;;;;;6.00;5.40;;;14.50;99.90;;;;;;6273631;22;20156;-55
2021/08/28 06:27:50;;;;;;;6.10;5.50;;;14.60;99.90;;;;;;6273705;22;20145;-59
2021/08/28 06:30:16;;;;;;;5.77;5.27;;;14.90;99.90;;;;;;6273073;22;20160;-56
2021/08/28 06:32:41;;;;;;;6.30;5.70;;;15.10;99.90;;;;;;6273725;22;20184;-58
2021/08/28 06:35:07;;;;;;;6.23;5.57;;;15.40;99.90;;;;;;6273780;22;20157;-57
2021/08/28 06:37:33;;;;;;;6.00;5.43;;;15.70;99.90;;;;;;6273903;22;20156;-55
2021/08/28 06:39:58;;;;;;;6.07;5.40;;;15.90;99.90;;;;;;6273923;22;20206;-56
2021/08/28 06:42:24;;;;;;;5.97;5.40;;;15.40;99.90;;;;;;6273462;22;20498;-57
2021/08/28 06:44:49;;;;;;;5.20;4.70;;;15.00;99.90;;;;;;6273750;22;20731;-59
2021/08/28 06:47:15;;;;;;;4.07;3.77;;;15.00;99.90;;;;;;6246519;22;20154;-55
2021/08/28 06:49:40;;;;;;;5.07;4.20;;;15.00;99.90;;;;;;6273425;22;20178;-55
2021/08/28 06:52:06;;;;;;;4.07;3.67;;;15.10;99.90;;;;;;6273410;22;20210;-57
2021/08/28 06:54:32;;;;;;;6.23;4.10;;;15.80;99.90;;;;;;6246725;22;20809;-58
2021/08/28 06:56:57;;;;;;;3.90;3.40;;;15.60;99.90;;;;;;6273915;22;20182;-58
2021/08/28 06:59:23;;;;;;;3.67;3.37;;;15.50;99.90;;;;;;6273187;22;20166;-55
2021/08/28 07:01:48;;;;;;;5.40;3.80;;;15.50;99.90;;;;;;6273884;22;20227;-58
2021/08/28 07:04:14;;;;;;;3.97;3.67;;;15.30;99.90;;;;;;6273671;22;20215;-55
2021/08/28 07:06:39;;;;;;;4.00;3.60;;;15.00;99.90;;;;;;6273568;22;20627;-58
2021/08/28 07:09:05;;;;;;;4.10;3.63;;;14.80;99.90;;;;;;6273255;22;20176;-57
2021/08/28 07:11:31;;;;;;;3.83;3.53;;;14.80;99.90;;;;;;6274103;22;20149;-57
2021/08/28 07:13:57;;;;;;;4.30;3.90;;;14.70;99.90;;;;;;6273457;22;20142;-56
2021/08/28 07:16:25;;;;;;;3.60;3.30;;;14.70;99.90;;;;;;6273514;22;20207;-55
2021/08/28 07:18:50;;;;;;;3.90;3.60;;;14.70;99.90;;;;;;6273275;22;20166;-58
2021/08/28 07:21:17;;;;;;;3.70;3.40;;;14.80;99.90;;;;;;6273272;22;20146;-55
2021/08/28 07:23:43;;;;;;;4.83;3.50;;;15.00;99.90;;;;;;6271780;22;20632;-58
2021/08/28 07:26:09;;;;;;;3.87;3.57;;;15.00;99.90;;;;;;6269239;22;20176;-61
2021/08/28 07:28:34;;;;;;;3.63;3.33;;;15.10;99.90;;;;;;6269024;22;20166;-62
2021/08/28 07:31:02;;;;;;;3.73;3.17;;;15.10;99.90;;;;;;6274047;22;20142;-59
2021/08/28 07:33:28;;;;;;;3.40;3.10;;;15.60;99.90;;;;;;6276938;22;20157;-57
2021/08/28 07:35:54;;;;;;;3.20;2.90;;;15.90;99.90;;;;;;6279653;22;20150;-56
2021/08/28 07:38:19;;;;;;;3.77;3.40;;;16.10;99.90;;;;;;6280406;22;20181;-57
2021/08/28 07:40:45;;;;;;;3.30;3.00;;;16.10;99.90;;;;;;6279159;22;20172;-58
2021/08/28 07:43:10;;;;;;;4.03;3.13;;;16.00;99.90;;;;;;6247760;22;20729;-55
2021/08/28 07:45:36;;;;;;;2.83;2.63;;;16.30;99.90;;;;;;6276549;22;20161;-56
2021/08/28 07:48:01;;;;;;;2.90;2.70;;;16.60;99.90;;;;;;6277268;22;20164;-54
2021/08/28 07:50:27;;;;;;;2.57;2.37;;;16.90;99.90;;;;;;6275376;22;20149;-56
2021/08/28 07:52:53;;;;;;;4.47;2.30;;;17.60;99.90;;;;;;6249254;22;20224;-56
2021/08/28 07:55:18;;;;;;;1.90;1.80;;;17.00;99.90;;;;;;6276280;22;20155;-54
2021/08/28 07:57:44;;;;;;;2.20;2.00;;;16.60;99.90;;;;;;6249446;22;20155;-56
2021/08/28 08:00:11;;;;;;;2.20;2.07;;;16.30;99.90;;;;;;6274864;22;20147;-61
2021/08/28 08:02:37;;;;;;;2.30;2.17;;;16.20;99.90;;;;;;6276632;22;20279;-58
2021/08/28 08:05:03;;;;;;;2.77;2.30;;;16.30;99.90;;;;;;6275367;22;20151;-59
2021/08/28 08:07:29;;;;;;;2.13;2.03;;;16.40;99.90;;;;;;6274888;22;20151;-54
2021/08/28 08:09:54;;;;;;;2.87;2.50;;;16.60;99.90;;;;;;6276583;22;20233;-56
2021/08/28 08:12:21;;;;;;;2.50;2.30;;;16.50;99.90;;;;;;6279384;22;20150;-58
2021/08/28 08:14:46;;;;;;;2.60;2.40;;;16.60;99.90;;;;;;6281762;22;20495;-56
2021/08/28 08:17:12;;;;;;;2.50;2.30;;;16.50;99.90;;;;;;6259282;22;20154;-56
2021/08/28 08:19:38;;;;;;;2.50;2.30;;;16.20;99.90;;;;;;6281418;22;20162;-61
2021/08/28 08:22:03;;;;;;;2.33;2.13;;;16.10;99.90;;;;;;6276924;22;20142;-60
2021/08/28 08:24:29;;;;;;;2.10;1.90;;;16.40;99.90;;;;;;6278443;22;20154;-56
2021/08/28 08:26:55;;;;;;;1.83;1.70;;;16.70;99.90;;;;;;6279980;22;20149;-59
2021/08/28 08:29:20;;;;;;;1.97;1.80;;;16.70;99.90;;;;;;6280874;22;20164;-57
2021/08/28 08:31:46;;;;;;;1.70;1.60;;;16.70;99.90;;;;;;6280578;22;20180;-60
2021/08/28 08:34:11;;;;;;;1.70;1.60;;;16.90;99.90;;;;;;6281842;22;20191;-55
2021/08/28 08:36:37;;;;;;;2.93;1.80;;;16.80;99.90;;;;;;6249305;22;20148;-57
2021/08/28 08:39:03;;;;;;;2.00;1.87;;;16.70;99.90;;;;;;6275033;22;20172;-57
2021/08/28 08:41:29;;;;;;;2.40;2.20;;;16.30;99.90;;;;;;6276332;22;20813;-57
2021/08/28 08:43:56;;;;;;;2.20;2.10;;;16.20;99.90;;;;;;6274700;22;20177;-58
2021/08/28 08:46:23;;;;;;;1.90;1.80;;;15.90;99.90;;;;;;6274460;22;20173;-59
2021/08/28 08:48:49;;;;;;;2.63;1.83;;;15.90;99.90;;;;;;6273687;22;20185;-53
2021/08/28 08:51:19;;;;;;;1.83;1.73;;;15.80;99.90;;;;;;6274460;22;20201;-58
2021/08/28 08:53:45;;;;;;;1.70;1.60;;;15.80;99.90;;;;;;6274419;22;20653;-57
2021/08/28 08:56:11;;;;;;;1.77;1.67;;;15.90;99.90;;;;;;6274438;22;20161;-56
2021/08/28 08:58:38;;;;;;;2.03;1.70;;;16.20;99.90;;;;;;6273267;22;20494;-58
2021/08/28 09:01:05;;;;;;;1.70;1.60;;;16.50;99.90;;;;;;6274391;22;20592;-60
2021/08/28 09:03:30;;;;;;;1.50;1.40;;;17.00;99.90;;;;;;6274380;22;20609;-55
2021/08/28 09:05:56;;;;;;;1.70;1.60;;;17.20;99.90;;;;;;6274519;22;20172;-56
2021/08/28 09:08:22;;;;;;;1.70;1.60;;;17.70;99.90;;;;;;6243938;22;20204;-55
2021/08/28 09:10:48;;;;;;;3.53;2.00;;;18.00;99.90;;;;;;6272591;22;20227;-59
2021/08/28 09:13:19;;;;;;;2.27;2.07;;;18.10;99.90;;;;;;6246748;22;20496;-57
2021/08/28 09:15:50;;;;;;;1.73;1.47;;;18.30;99.90;;;;;;6273729;22;20217;-59
2021/08/28 09:18:16;;;;;;;2.57;1.50;;;18.30;99.90;;;;;;6273763;22;20670;-60
2021/08/28 09:20:42;;;;;;;1.60;1.50;;;18.10;99.90;;;;;;6273903;22;20145;-58
2021/08/28 09:23:10;;;;;;;6.40;4.10;;;18.10;99.90;;;;;;6274047;22;20253;-60
2021/08/28 09:25:40;;;;;;;2.30;2.10;;;18.30;99.90;;;;;;6273885;22;20229;-57
2021/08/28 09:28:08;;;;;;;2.03;1.70;;;18.60;99.90;;;;;;6273855;22;20170;-57
2021/08/28 09:30:40;;;;;;;1.60;1.50;;;18.80;99.90;;;;;;6273982;22;20154;-61
2021/08/28 09:33:08;;;;;;;1.57;1.47;;;19.00;99.90;;;;;;6247162;22;20225;-59
2021/08/28 09:35:41;;;;;;;2.57;1.70;;;19.40;99.90;;;;;;6273940;22;20157;-60
2021/08/28 09:38:11;;;;;;;1.67;1.57;;;19.70;99.90;;;;;;6274047;22;20166;-57
2021/08/28 09:40:43;;;;;;;1.63;1.50;;;19.40;99.90;;;;;;6273572;22;20208;-59
2021/08/28 09:43:13;;;;;;;1.60;1.50;;;19.00;99.90;;;;;;6273908;22;20169;-60
2021/08/28 09:45:39;;;;;;;1.40;1.30;;;18.60;99.90;;;;;;6273638;22;20573;-59
2021/08/28 09:48:10;;;;;;;1.30;1.20;;;18.50;99.90;;;;;;6273601;22;20158;-58
2021/08/28 09:50:40;;;;;;;1.50;1.40;;;18.30;99.90;;;;;;6273544;22;20738;-59
2021/08/28 09:53:10;;;;;;;1.43;1.17;;;18.70;99.90;;;;;;6274164;22;20178;-59
2021/08/28 09:55:38;;;;;;;1.33;1.23;;;19.20;99.90;;;;;;6273627;22;20154;-56
2021/08/28 09:58:04;;;;;;;1.30;1.07;;;19.30;99.90;;;;;;6273845;22;20315;-61
2021/08/28 10:00:32;;;;;;;1.40;1.30;;;19.20;99.90;;;;;;6269282;22;20466;-61
2021/08/28 10:03:02;;;;;;;1.80;1.53;;;19.50;99.90;;;;;;6273365;22;20257;-60
2021/08/28 10:05:29;;;;;;;1.17;1.10;;;19.30;99.90;;;;;;6273571;22;20138;-57
2021/08/28 10:07:57;;;;;;;1.40;1.10;;;18.90;99.90;;;;;;6273006;22;20150;-59
2021/08/28 10:10:22;;;;;;;1.13;1.07;;;18.80;99.90;;;;;;6273173;22;20249;-58
2021/08/28 10:12:49;;;;;;;2.07;1.10;;;19.00;99.90;;;;;;6273326;22;20173;-58
2021/08/28 10:15:15;;;;;;;1.00;1.00;;;19.20;99.90;;;;;;6273683;22;20170;-56
2021/08/28 10:17:44;;;;;;;1.17;1.10;;;19.00;99.90;;;;;;6272844;22;20157;-59
2021/08/28 10:20:11;;;;;;;1.00;0.90;;;18.70;99.90;;;;;;6272931;22;20150;-60
2021/08/28 10:22:40;;;;;;;1.20;1.10;;;19.10;99.90;;;;;;6246269;22;20178;-59
2021/08/28 10:25:09;;;;;;;1.43;1.07;;;19.00;99.90;;;;;;6272794;22;20146;-55
2021/08/28 10:27:37;;;;;;;1.50;1.40;;;18.70;99.90;;;;;;6270500;22;20173;-58
2021/08/28 10:30:04;;;;;;;1.30;1.10;;;18.40;99.90;;;;;;6245340;22;20223;-57
2021/08/28 10:32:29;;;;;;;2.17;1.00;;;18.40;99.90;;;;;;6273277;22;20154;-57
2021/08/28 10:34:55;;;;;;;0.70;0.70;;;18.70;99.90;;;;;;6245939;22;20655;-55
2021/08/28 10:37:21;;;;;;;0.80;0.80;;;19.00;99.90;;;;;;6273538;22;20142;-55
2021/08/28 10:39:49;;;;;;;1.45;0.80;;;19.40;99.90;;;;;;6272997;22;20162;-58
2021/08/28 10:42:15;;;;;;;0.80;0.80;;;19.80;99.90;;;;;;6267419;22;20154;-59
2021/08/28 10:44:41;;;;;;;0.88;0.88;;;20.00;99.90;;;;;;6271209;22;20135;-57
2021/08/28 10:47:19;;;;;;;0.65;0.65;;;20.20;99.90;;;;;;6272853;22;20143;-57
2021/08/28 10:49:48;;;;;;;0.90;0.80;;;19.90;99.90;;;;;;6268899;22;20638;-58
2021/08/28 10:52:22;;;;;;;1.48;0.93;;;19.50;99.90;;;;;;6270462;22;20131;-54
2021/08/28 10:54:59;;;;;;;0.80;0.80;;;19.00;99.90;;;;;;6271304;22;20142;-59
2021/08/28 10:57:26;;;;;;;0.67;0.67;;;18.80;99.90;;;;;;6268739;22;20142;-58
2021/08/28 11:00:15;;;;;;;0.83;0.70;;;18.40;99.90;;;;;;6263381;22;20180;-57
2021/08/28 11:02:53;;;;;;;0.80;0.80;;;19.10;99.90;;;;;;6272009;22;20170;-58
2021/08/28 11:05:39;;;;;;;1.08;1.00;;;19.40;99.90;;;;;;6272647;22;20165;-56
2021/08/28 11:08:18;;;;;;;0.82;0.82;;;19.50;99.90;;;;;;6271936;22;20170;-56
2021/08/28 11:11:03;;;;;;;1.13;1.10;;;19.90;99.90;;;;;;6270729;22;20140;-60
2021/08/28 11:13:56;;;;;;;0.80;0.80;;;20.20;99.90;;;;;;6272726;22;20651;-59
2021/08/28 11:16:40;;;;;;;1.40;1.10;;;20.90;99.90;;;;;;6273273;22;20135;-59
2021/08/28 11:19:08;;;;;;;0.90;0.90;;;21.50;99.90;;;;;;6271339;22;20535;-58
2021/08/28 11:21:44;;;;;;;1.30;1.20;;;21.50;99.90;;;;;;6273291;22;20146;-58
2021/08/28 11:24:19;;;;;;;1.35;1.10;;;21.60;99.90;;;;;;6274995;22;20628;-60
2021/08/28 11:26:52;;;;;;;2.28;0.80;;;21.50;99.90;;;;;;6274739;22;20153;-60
2021/08/28 11:29:19;;;;;;;1.15;1.15;;;21.60;99.90;;;;;;6274832;22;20181;-54
2021/08/28 11:32:03;;;;;;;1.20;1.10;;;21.70;99.90;;;;;;6274907;22;20146;-60
2021/08/28 11:34:29;;;;;;;1.20;1.20;;;21.60;99.90;;;;;;6271276;22;20231;-56
2021/08/28 11:37:23;;;;;;;1.10;1.00;;;21.80;99.90;;;;;;6271532;22;20164;-51
2021/08/28 11:39:49;;;;;;;0.93;0.93;;;22.00;99.90;;;;;;6272501;22;20177;-59
2021/08/28 11:42:15;;;;;;;0.80;0.80;;;22.30;99.90;;;;;;6272628;22;20511;-58
2021/08/28 11:44:42;;;;;;;1.15;1.05;;;22.30;99.90;;;;;;6274494;22;20138;-55
2021/08/28 11:47:08;;;;;;;1.02;1.00;;;22.10;99.90;;;;;;6273323;22;20150;-57
2021/08/28 11:49:38;;;;;;;0.82;0.82;;;21.60;99.90;;;;;;6274373;22;20186;-55
2021/08/28 11:52:08;;;;;;;0.98;0.98;;;21.60;99.90;;;;;;6274455;22;20193;-54
2021/08/28 11:54:34;;;;;;;0.80;0.80;;;21.90;99.90;;;;;;6273788;22;20146;-58
2021/08/28 11:57:00;;;;;;;0.80;0.80;;;22.60;99.90;;;;;;6274851;22;20532;-63
2021/08/28 11:59:37;;;;;;;0.80;0.80;;;23.10;99.90;;;;;;6273130;22;20228;-59
2021/08/28 12:02:03;;;;;;;0.90;0.90;;;23.70;99.90;;;;;;6257849;22;20170;-56
2021/08/28 12:04:33;;;;;;;0.93;0.93;;;23.70;99.90;;;;;;6242194;23;20220;-60
2021/08/28 12:06:59;;;;;;;0.90;0.90;;;23.20;99.90;;;;;;6243622;23;20466;-59
2021/08/28 12:09:25;;;;;;;0.93;0.93;;;22.70;99.90;;;;;;6242960;23;20154;-58
2021/08/28 12:11:52;;;;;;;0.93;0.93;;;22.50;99.90;;;;;;6244006;22;20173;-57
2021/08/28 12:14:19;;;;;;;1.02;1.02;;;22.20;99.90;;;;;;6244893;23;20671;-54
2021/08/28 12:16:46;;;;;;;0.95;0.95;;;22.10;99.90;;;;;;6242901;23;20214;-56
2021/08/28 12:19:18;;;;;;;1.27;1.20;;;22.40;99.90;;;;;;6242313;23;20158;-56
2021/08/28 12:21:52;;;;;;;1.20;1.20;;;22.70;99.90;;;;;;6244285;22;20213;-54
2021/08/28 12:24:32;;;;;;;1.10;1.10;;;22.60;99.90;;;;;;6244042;23;20231;-56
2021/08/28 12:27:07;;;;;;;1.23;1.17;;;22.50;99.90;;;;;;6244114;23;20143;-56
2021/08/28 12:29:32;;;;;;;0.98;0.98;;;22.60;99.90;;;;;;6244322;23;20131;-54
2021/08/28 12:32:07;;;;;;;2.40;1.30;;;23.10;99.90;;;;;;6244125;22;20498;-59
2021/08/28 12:34:35;;;;;;;1.98;1.30;;;23.40;99.90;;;;;;6244455;23;20138;-59
2021/08/28 12:37:06;;;;;;;1.88;1.00;;;23.70;99.90;;;;;;6244257;23;20228;-62
2021/08/28 12:39:33;;;;;;;1.20;1.10;;;23.50;99.90;;;;;;6243996;23;20134;-53
2021/08/28 12:42:00;;;;;;;1.85;1.13;;;23.40;99.90;;;;;;6243710;22;20483;-54
2021/08/28 12:44:30;;;;;;;0.95;0.95;;;22.90;99.90;;;;;;6244555;23;20253;-58
2021/08/28 12:46:57;;;;;;;1.27;1.17;;;22.90;99.90;;;;;;6244134;23;20500;-56
2021/08/28 12:49:25;;;;;;;1.00;1.00;;;22.80;99.90;;;;;;6243856;23;20274;-57
2021/08/28 12:51:54;;;;;;;1.30;1.20;;;22.50;99.90;;;;;;6243523;22;20185;-60